Time;durP1;ratioP1;P1;durP2;ratioP2;P2;SDS_P1;SDS_P2;PMS_P1;PMS_P2;Temp;Humidity;BMP_temperature;BMP_pressure;BME280_temperature;BME280_humidity;BME280_pressure;Samples;Min_cycle;Max_cycle;Signal;HPM_P1;HPM_P2
2021/04/11 00:00:35;;;;;;;47.90;28.83;;;;;;;4.85;100.00;100610.94;5004543;28;20193;-82
2021/04/11 00:03:05;;;;;;;48.03;29.43;;;;;;;4.87;100.00;100608.38;5008981;28;20219;-82
2021/04/11 00:05:33;;;;;;;49.67;30.23;;;;;;;4.85;100.00;100604.94;5003490;28;20224;-82
2021/04/11 00:08:00;;;;;;;46.90;29.40;;;;;;;4.87;100.00;100604.09;5006215;28;20188;-82
2021/04/11 00:10:29;;;;;;;51.03;30.30;;;;;;;4.87;100.00;100608.38;5007388;28;20220;-82
2021/04/11 00:12:55;;;;;;;49.67;28.20;;;;;;;4.89;100.00;100598.88;4989657;28;20255;-82
2021/04/11 00:15:22;;;;;;;51.10;30.43;;;;;;;4.92;100.00;100593.72;5000620;28;20236;-82
2021/04/11 00:17:48;;;;;;;51.77;30.33;;;;;;;4.95;100.00;100591.13;5010283;28;20268;-82
2021/04/11 00:20:16;;;;;;;50.80;28.97;;;;;;;4.98;100.00;100582.47;5010472;28;20235;-82
2021/04/11 00:22:44;;;;;;;54.87;32.17;;;;;;;5.01;100.00;100580.75;5003729;28;20433;-82
2021/04/11 00:25:13;;;;;;;51.90;31.03;;;;;;;5.04;100.00;100578.16;5017309;28;20211;-81
2021/04/11 00:27:40;;;;;;;51.43;31.37;;;;;;;5.06;100.00;100568.66;5027784;28;20201;-81
2021/04/11 00:30:07;;;;;;;57.87;33.83;;;;;;;5.09;100.00;100567.81;5030556;28;20208;-81
2021/04/11 00:32:33;;;;;;;52.33;30.70;;;;;;;5.10;100.00;100570.41;5009219;28;20239;-81
2021/04/11 00:34:59;;;;;;;51.60;30.80;;;;;;;5.08;100.00;100564.38;4995625;28;20215;-81
2021/04/11 00:37:26;;;;;;;57.70;33.30;;;;;;;5.07;100.00;100567.81;4997517;28;20206;-82
2021/04/11 00:39:52;;;;;;;50.83;30.67;;;;;;;5.09;100.00;100567.81;5005815;28;20189;-81
2021/04/11 00:42:24;;;;;;;55.53;31.23;;;;;;;5.11;100.00;100574.69;5013215;28;20197;-82
2021/04/11 00:44:51;;;;;;;55.97;29.73;;;;;;;5.14;100.00;100563.47;5008554;28;20251;-82
2021/04/11 00:47:18;;;;;;;52.27;30.60;;;;;;;5.13;100.00;100562.59;5007682;28;20224;-82
2021/04/11 00:49:46;;;;;;;52.97;31.60;;;;;;;5.12;100.00;100554.88;5008009;28;20258;-81
2021/04/11 00:52:14;;;;;;;53.83;30.93;;;;;;;5.11;100.00;100554.00;4988656;28;20216;-82
2021/04/11 00:54:42;;;;;;;52.07;29.07;;;;;;;5.15;100.00;100543.66;4990724;28;20220;-82
2021/04/11 00:57:10;;;;;;;51.30;31.03;;;;;;;5.15;100.00;100539.34;4968185;28;20204;-82
2021/04/11 00:59:37;;;;;;;52.17;30.87;;;;;;;5.15;100.00;100539.34;4992562;28;20210;-82
2021/04/11 01:02:04;;;;;;;46.93;28.60;;;;;;;5.15;100.00;100541.91;5004394;28;20182;-82
2021/04/11 01:04:31;;;;;;;51.73;30.43;;;;;;;5.15;100.00;100544.50;4999511;28;20499;-82
2021/04/11 01:06:59;;;;;;;52.57;30.37;;;;;;;5.17;100.00;100541.91;4983656;28;20364;-81
2021/04/11 01:09:29;;;;;;;52.90;29.97;;;;;;;5.16;100.00;100550.56;5003816;28;20284;-82
2021/04/11 01:12:00;;;;;;;46.07;29.30;;;;;;;5.13;100.00;100541.94;4989966;28;20584;-82
2021/04/11 01:14:29;;;;;;;51.90;31.43;;;;;;;5.13;100.00;100541.06;4980866;28;20267;-82
2021/04/11 01:16:56;;;;;;;48.83;31.37;;;;;;;5.11;100.00;100541.09;4983735;28;20479;-82
2021/04/11 01:19:26;;;;;;;46.67;29.17;;;;;;;5.09;100.00;100531.63;5002470;28;20220;-82
2021/04/11 01:21:59;;;;;;;44.63;29.13;;;;;;;5.06;100.00;100531.63;5006475;28;20666;-82
2021/04/11 01:24:36;;;;;;;48.80;28.50;;;;;;;5.04;100.00;100523.03;4983650;28;20279;-82
2021/04/11 01:27:06;;;;;;;52.50;29.03;;;;;;;5.02;100.00;100515.28;4981670;28;20220;-82
2021/04/11 01:29:32;;;;;;;48.47;31.17;;;;;;;5.01;100.00;100515.28;4992273;28;20223;-82
2021/04/11 01:31:59;;;;;;;46.20;28.43;;;;;;;4.99;100.00;100497.22;4990382;28;20229;-82
2021/04/11 01:34:26;;;;;;;48.27;28.33;;;;;;;4.99;100.00;100504.97;5012577;28;20221;-82
2021/04/11 01:36:55;;;;;;;49.90;30.53;;;;;;;4.99;100.00;100498.94;4993675;28;20209;-82
2021/04/11 01:39:26;;;;;;;44.50;27.90;;;;;;;4.97;100.00;100501.53;5005479;28;20215;-82
2021/04/11 01:41:56;;;;;;;46.67;27.40;;;;;;;4.95;100.00;100498.09;5005090;28;20341;-82
2021/04/11 01:44:25;;;;;;;43.27;27.00;;;;;;;4.94;100.00;100493.78;4988148;28;20224;-81
2021/04/11 01:46:52;;;;;;;46.47;28.00;;;;;;;4.95;100.00;100494.66;4983795;28;20193;-82
2021/04/11 01:49:21;;;;;;;47.10;28.00;;;;;;;4.96;100.00;100486.91;4989335;28;20247;-82
2021/04/11 01:51:52;;;;;;;47.83;28.50;;;;;;;5.02;100.00;100478.25;4987301;28;20554;-82
2021/04/11 01:54:22;;;;;;;50.13;28.00;;;;;;;5.05;100.00;100478.25;5006448;28;20229;-82
2021/04/11 01:56:49;;;;;;;48.10;28.63;;;;;;;5.08;99.56;100470.47;4996790;28;20197;-82
2021/04/11 01:59:25;;;;;;;49.13;29.87;;;;;;;5.12;99.22;100467.00;4992083;28;20296;-81
2021/04/11 02:01:52;;;;;;;47.17;30.07;;;;;;;5.13;98.93;100464.38;4983374;28;20198;-82
2021/04/11 02:04:20;;;;;;;46.10;29.30;;;;;;;5.13;99.18;100464.38;4995502;28;20220;-82
2021/04/11 02:06:49;;;;;;;49.57;28.67;;;;;;;5.15;98.83;100472.13;5004930;28;20204;-82
2021/04/11 02:09:41;;;;;;;47.23;28.20;;;;;;;5.16;98.66;100468.69;5007717;28;20620;-82
2021/04/11 02:12:26;;;;;;;43.80;27.53;;;;;;;5.18;98.35;100466.09;5000445;28;20218;-82
2021/04/11 02:15:06;;;;;;;47.37;28.53;;;;;;;5.19;98.41;100454.88;5005517;28;20708;-82
2021/04/11 02:17:32;;;;;;;48.37;27.37;;;;;;;5.19;98.24;100457.47;4978580;28;20210;-82
2021/04/11 02:19:59;;;;;;;48.77;29.17;;;;;;;5.19;98.20;100447.13;4993020;28;20209;-82
2021/04/11 02:22:34;;;;;;;42.80;25.63;;;;;;;5.19;98.11;100440.25;4994668;28;20283;-82
2021/04/11 02:25:09;;;;;;;46.30;28.43;;;;;;;5.18;98.27;100435.94;4991058;28;20219;-82
2021/04/11 02:27:36;;;;;;;46.23;27.47;;;;;;;5.16;98.31;100432.50;4998092;28;20197;-82
2021/04/11 02:30:07;;;;;;;41.43;26.77;;;;;;;5.17;98.39;100438.53;5014915;28;20228;-82
2021/04/11 02:32:33;;;;;;;45.70;26.30;;;;;;;5.18;97.99;100432.50;5003019;28;20666;-82
2021/04/11 02:35:00;;;;;;;48.67;26.10;;;;;;;5.19;97.82;100434.19;5007994;28;20299;-82
2021/04/11 02:37:33;;;;;;;44.17;26.67;;;;;;;5.17;97.89;100426.47;4981587;28;20233;-82
2021/04/11 02:40:02;;;;;;;42.93;25.60;;;;;;;5.17;97.77;100436.81;5004450;28;20203;-81
2021/04/11 02:42:34;;;;;;;46.67;27.83;;;;;;;5.14;97.85;100436.84;5005136;28;20189;-82
2021/04/11 02:45:03;;;;;;;44.00;27.30;;;;;;;5.13;97.78;100433.38;5011571;28;20484;-82
2021/04/11 02:47:37;;;;;;;46.67;27.83;;;;;;;5.12;98.18;100429.09;4979376;28;20292;-82
2021/04/11 02:50:06;;;;;;;43.30;27.90;;;;;;;5.12;98.25;100426.50;4994789;28;20258;-81
2021/04/11 02:52:38;;;;;;;41.33;25.13;;;;;;;5.11;97.96;100427.38;5005616;28;20232;-82
2021/04/11 02:55:07;;;;;;;42.17;26.87;;;;;;;5.10;98.28;100427.38;5007982;28;20210;-82
2021/04/11 02:57:34;;;;;;;41.83;27.07;;;;;;;5.09;98.14;100429.09;5019131;28;20663;-82
2021/04/11 03:00:08;;;;;;;43.27;25.40;;;;;;;5.08;98.06;100421.34;4984295;28;20207;-82
2021/04/11 03:02:38;;;;;;;46.87;26.40;;;;;;;5.08;97.97;100409.31;4993139;28;20512;-82
2021/04/11 03:05:09;;;;;;;43.17;26.20;;;;;;;5.10;97.62;100410.16;5009527;28;20263;-82
2021/04/11 03:07:41;;;;;;;41.57;26.77;;;;;;;5.12;97.56;100416.16;5008762;28;20226;-82
2021/04/11 03:10:15;;;;;;;44.13;25.43;;;;;;;5.11;97.48;100406.69;5006616;28;20207;-82
2021/04/11 03:12:43;;;;;;;48.47;28.20;;;;;;;5.11;97.60;100411.84;5008053;28;20220;-82
2021/04/11 03:15:13;;;;;;;44.50;27.50;;;;;;;5.10;97.79;100399.81;4992790;28;20435;-82
2021/04/11 03:17:41;;;;;;;44.70;27.83;;;;;;;5.10;97.57;100401.53;5005192;28;20193;-82
2021/04/11 03:20:12;;;;;;;43.63;27.47;;;;;;;5.10;97.36;100398.94;4989305;28;20205;-82
2021/04/11 03:22:43;;;;;;;46.70;26.47;;;;;;;5.10;97.28;100389.47;4992316;28;20207;-82
2021/04/11 03:25:14;;;;;;;41.97;27.00;;;;;;;5.11;96.95;100392.91;5008830;28;20225;-81
2021/04/11 03:27:49;;;;;;;44.03;26.20;;;;;;;5.13;96.74;100393.75;5001687;28;20216;-82
2021/04/11 03:30:19;;;;;;;43.20;25.63;;;;;;;5.16;96.01;100395.47;5007523;28;20216;-82
2021/04/11 03:32:51;;;;;;;46.73;25.30;;;;;;;5.17;95.94;100400.63;4992876;28;20208;-82
2021/04/11 03:35:22;;;;;;;43.27;25.43;;;;;;;5.18;95.58;100397.16;4999767;28;20228;-82
2021/04/11 03:37:52;;;;;;;45.43;25.83;;;;;;;5.18;95.32;100394.59;5007143;28;20231;-82
2021/04/11 03:40:21;;;;;;;43.43;27.07;;;;;;;5.18;95.24;100389.41;4974071;28;20297;-82
2021/04/11 03:42:51;;;;;;;41.33;24.67;;;;;;;5.17;95.34;100395.47;4984263;28;20197;-82
2021/04/11 03:45:20;;;;;;;41.13;27.23;;;;;;;5.15;95.43;100391.16;4991281;28;20223;-82
2021/04/11 03:47:54;;;;;;;45.60;25.40;;;;;;;5.12;95.96;100399.81;5007174;28;20382;-82
2021/04/11 03:50:26;;;;;;;50.07;28.10;;;;;;;5.09;95.65;100395.50;5002503;28;20196;-82
2021/04/11 03:53:10;;;;;;;44.30;25.17;;;;;;;5.08;95.61;100385.19;4994915;28;20228;-82
2021/04/11 03:55:43;;;;;;;47.30;26.57;;;;;;;5.04;96.03;100392.09;4996779;28;20307;-82
2021/04/11 03:58:17;;;;;;;41.60;27.67;;;;;;;5.02;95.81;100386.09;4999164;28;20212;-82
2021/04/11 04:00:51;;;;;;;44.20;26.30;;;;;;;5.04;95.61;100386.06;5014481;28;20232;-82
2021/04/11 04:03:25;;;;;;;46.47;27.20;;;;;;;5.02;95.75;100382.66;4995716;28;20310;-82
2021/04/11 04:05:52;;;;;;;47.97;27.83;;;;;;;5.02;95.61;100383.50;5002450;28;20220;-82
2021/04/11 04:08:19;;;;;;;43.23;27.00;;;;;;;5.02;95.56;100382.66;5002613;28;20599;-82
2021/04/11 04:11:10;;;;;;;45.70;26.63;;;;;;;5.00;96.02;100385.25;5005425;28;20208;-82
2021/04/11 04:13:51;;;;;;;42.27;25.43;;;;;;;5.00;95.64;100381.81;5005511;28;20232;-82
2021/04/11 04:16:33;;;;;;;41.40;26.80;;;;;;;4.99;95.50;100374.91;4993560;28;20224;-82
2021/04/11 04:19:41;;;;;;;43.37;26.60;;;;;;;4.99;95.50;100375.75;4989995;28;20284;-82
2021/04/11 04:22:25;;;;;;;41.67;25.53;;;;;;;5.00;95.33;100374.91;4987776;28;20251;-82
2021/04/11 04:25:13;;;;;;;43.97;26.20;;;;;;;5.00;95.30;100363.72;5003937;28;20233;-82
2021/04/11 04:28:10;;;;;;;42.63;26.43;;;;;;;5.01;95.21;100365.41;5014316;28;20200;-82
2021/04/11 04:30:49;;;;;;;40.87;25.30;;;;;;;5.01;95.37;100363.69;5009236;28;20208;-82
2021/04/11 04:33:41;;;;;;;43.27;25.63;;;;;;;5.02;95.23;100360.25;5011099;28;20231;-82
2021/04/11 04:36:18;;;;;;;41.30;24.67;;;;;;;5.01;95.43;100355.09;5013854;28;20230;-82
2021/04/11 04:38:59;;;;;;;47.03;25.70;;;;;;;5.02;95.09;100356.81;5001461;28;20252;-82
2021/04/11 04:41:38;;;;;;;40.37;25.47;;;;;;;5.01;95.07;100353.34;5009412;28;20560;-82
2021/04/11 04:44:19;;;;;;;41.90;26.60;;;;;;;5.01;95.19;100362.84;4999371;28;20272;-82
2021/04/11 04:47:02;;;;;;;41.40;23.70;;;;;;;5.02;95.02;100361.97;5001509;28;20185;-82
2021/04/11 04:49:37;;;;;;;41.57;25.37;;;;;;;5.02;95.11;100357.66;5012126;28;20184;-81
2021/04/11 04:52:08;;;;;;;41.60;25.77;;;;;;;5.02;94.83;100356.81;5010068;28;20283;-81
2021/04/11 04:54:41;;;;;;;42.47;24.87;;;;;;;5.06;95.16;100348.16;5013616;28;20215;-81
2021/04/11 04:57:14;;;;;;;40.60;24.80;;;;;;;5.08;94.61;100351.59;5011210;28;20197;-81
2021/04/11 04:59:48;;;;;;;37.90;23.23;;;;;;;5.11;94.48;100365.34;5012284;28;20258;-81
2021/04/11 05:02:23;;;;;;;38.97;23.27;;;;;;;5.13;94.54;100367.91;5009768;28;20188;-82
2021/04/11 05:05:08;;;;;;;44.53;25.93;;;;;;;5.16;94.42;100356.72;4992288;28;20225;-81
2021/04/11 05:07:47;;;;;;;38.83;23.40;;;;;;;5.19;94.46;100359.25;4995128;28;20246;-82
2021/04/11 05:10:18;;;;;;;39.40;24.00;;;;;;;5.20;93.94;100359.22;4988925;28;20213;-82
2021/04/11 05:12:53;;;;;;;39.97;24.43;;;;;;;5.22;93.94;100357.50;5007838;28;20213;-82
2021/04/11 05:15:24;;;;;;;37.33;22.47;;;;;;;5.25;93.88;100359.22;4992243;28;20229;-82
2021/04/11 05:18:07;;;;;;;34.77;22.27;;;;;;;5.28;93.47;100352.28;4995884;28;20282;-82
2021/04/11 05:20:43;;;;;;;42.33;23.13;;;;;;;5.31;93.50;100353.97;4986676;28;20215;-82
2021/04/11 05:23:17;;;;;;;36.17;22.27;;;;;;;5.32;93.12;100351.38;5012802;28;20192;-82
2021/04/11 05:25:50;;;;;;;40.20;23.07;;;;;;;5.37;93.12;100346.16;4986680;28;20692;-82
2021/04/11 05:28:23;;;;;;;40.93;24.37;;;;;;;5.38;92.80;100345.31;4978397;28;20201;-82
2021/04/11 05:30:59;;;;;;;34.37;22.10;;;;;;;5.42;92.76;100340.97;4983888;28;20197;-82
2021/04/11 05:33:25;;;;;;;37.17;22.63;;;;;;;5.43;92.90;100338.34;5007792;28;20224;-82
2021/04/11 05:36:00;;;;;;;38.90;22.60;;;;;;;5.45;92.44;100334.03;5005226;28;20217;-82
2021/04/11 05:38:32;;;;;;;36.07;23.03;;;;;;;5.48;92.22;100327.97;4989757;28;20227;-82
2021/04/11 05:41:03;;;;;;;37.00;21.37;;;;;;;5.50;92.13;100326.22;5003140;28;20224;-82
2021/04/11 05:43:36;;;;;;;39.27;23.67;;;;;;;5.50;92.22;100329.69;5007532;28;20201;-82
2021/04/11 05:46:11;;;;;;;37.20;21.27;;;;;;;5.51;92.38;100327.94;5005814;28;20225;-82
2021/04/11 05:48:43;;;;;;;38.70;21.27;;;;;;;5.53;91.92;100325.34;5005887;28;20200;-82
2021/04/11 05:51:14;;;;;;;34.97;21.90;;;;;;;5.54;92.21;100322.75;5003417;28;20192;-82
2021/04/11 05:53:47;;;;;;;35.00;21.13;;;;;;;5.53;91.88;100327.94;4992265;28;20189;-82
2021/04/11 05:56:18;;;;;;;38.07;22.43;;;;;;;5.53;91.72;100325.34;5006046;28;20703;-82
2021/04/11 05:58:49;;;;;;;36.67;20.50;;;;;;;5.52;91.55;100321.88;5005554;28;20199;-81
2021/04/11 06:01:19;;;;;;;39.20;21.80;;;;;;;5.53;91.61;100320.16;4991747;28;20253;-82
2021/04/11 06:03:52;;;;;;;37.13;20.87;;;;;;;5.54;91.52;100322.75;5005560;28;20762;-82
2021/04/11 06:06:23;;;;;;;34.80;21.00;;;;;;;5.57;91.93;100322.69;4989483;28;20200;-82
2021/04/11 06:08:59;;;;;;;35.40;20.93;;;;;;;5.64;90.87;100311.41;4996614;28;20722;-82
2021/04/11 06:11:34;;;;;;;39.93;22.67;;;;;;;5.72;91.01;100319.09;5006303;28;20200;-82
2021/04/11 06:14:04;;;;;;;33.37;20.27;;;;;;;5.77;91.02;100326.78;5004168;28;20264;-82
2021/04/11 06:16:33;;;;;;;30.07;19.50;;;;;;;5.84;90.30;100320.66;5006063;28;20201;-82
2021/04/11 06:19:01;;;;;;;30.87;18.10;;;;;;;5.93;88.99;100322.28;5001229;28;20203;-82
2021/04/11 06:21:37;;;;;;;35.13;20.20;;;;;;;6.04;89.02;100323.06;5001556;28;20213;-82
2021/04/11 06:24:15;;;;;;;32.60;19.67;;;;;;;6.11;88.83;100321.28;5013506;28;20203;-82
2021/04/11 06:26:48;;;;;;;30.40;19.97;;;;;;;6.16;88.40;100325.50;5010827;28;20204;-82
2021/04/11 06:29:17;;;;;;;32.77;19.80;;;;;;;6.25;88.82;100322.78;5005533;28;20229;-82
2021/04/11 06:31:47;;;;;;;30.70;17.10;;;;;;;6.42;86.97;100330.34;5008333;28;20587;-82
2021/04/11 06:34:18;;;;;;;28.20;18.67;;;;;;;6.57;87.34;100331.00;4992321;28;20607;-82
2021/04/11 06:36:48;;;;;;;32.23;18.40;;;;;;;6.70;86.37;100329.09;5002226;28;20212;-82
2021/04/11 06:39:24;;;;;;;31.40;17.60;;;;;;;6.85;85.84;100328.84;5009856;28;20243;-82
2021/04/11 06:42:10;;;;;;;28.17;18.23;;;;;;;6.99;84.82;100326.06;5000830;28;20891;-82
2021/04/11 06:44:56;;;;;;;28.80;17.63;;;;;;;7.12;84.13;100331.88;5002221;28;20224;-82
2021/04/11 06:48:00;;;;;;;25.07;17.30;;;;;;;7.22;83.75;100328.25;5012665;28;20208;-82
2021/04/11 06:50:57;;;;;;;25.40;16.33;;;;;;;7.38;83.29;100331.44;5006162;28;20203;-82
2021/04/11 06:53:39;;;;;;;24.83;16.47;;;;;;;7.53;83.18;100325.13;5007112;28;20239;-82
2021/04/11 06:56:33;;;;;;;26.67;17.40;;;;;;;7.72;82.53;100334.28;5012835;28;20213;-82
2021/04/11 06:59:11;;;;;;;26.60;15.90;;;;;;;7.87;80.72;100327.94;5015127;28;20635;-82
2021/04/11 07:02:00;;;;;;;22.20;15.27;;;;;;;8.08;80.14;100326.66;5009389;28;20200;-82
2021/04/11 07:05:01;;;;;;;24.00;15.50;;;;;;;8.29;79.69;100329.69;4997230;28;20221;-82
2021/04/11 07:07:55;;;;;;;23.23;14.77;;;;;;;8.51;78.18;100328.38;4991825;28;20210;-82
2021/04/11 07:10:34;;;;;;;18.87;12.70;;;;;;;8.74;76.98;100332.16;5007090;28;20197;-82
2021/04/11 07:13:42;;;;;;;22.43;13.77;;;;;;;8.94;76.33;100342.13;4990504;28;20213;-82
2021/04/11 07:16:36;;;;;;;23.87;13.57;;;;;;;9.18;77.12;100339.78;5009069;28;20221;-82
2021/04/11 07:22:29;;;;;;;19.10;12.00;;;;;;;9.84;72.96;100340.69;5116381;27;20622;-73
2021/04/11 07:25:12;;;;;;;18.90;11.97;;;;;;;10.14;72.89;100338.94;5120155;27;20331;-73
2021/04/11 07:27:56;;;;;;;15.80;10.10;;;;;;;10.40;74.12;100330.41;5122077;27;20202;-73
2021/04/11 07:30:37;;;;;;;16.77;10.10;;;;;;;10.75;70.57;100338.91;5103143;28;20303;-73
2021/04/11 07:33:30;;;;;;;12.30;8.30;;;;;;;11.09;70.81;100339.56;5094482;22;20238;-71
2021/04/11 07:36:26;;;;;;;12.97;8.20;;;;;;;11.41;68.48;100338.47;5039316;28;20195;-71
2021/04/11 07:39:20;;;;;;;8.40;5.80;;;;;;;11.62;67.96;100330.81;5030184;28;20214;-72
2021/04/11 07:42:02;;;;;;;7.37;5.30;;;;;;;11.79;65.34;100331.09;5027798;28;20236;-71
2021/04/11 07:44:54;;;;;;;8.10;5.23;;;;;;;11.97;65.75;100319.13;5015411;28;20200;-72
2021/04/11 07:47:36;;;;;;;6.47;3.83;;;;;;;12.09;64.14;100313.47;5024505;28;20200;-71
2021/04/11 07:50:20;;;;;;;5.80;3.50;;;;;;;12.21;61.78;100316.53;5014586;28;20198;-70
2021/04/11 07:53:09;;;;;;;6.73;2.90;;;;;;;12.34;61.94;100311.69;4998294;28;20242;-71
2021/04/11 07:55:47;;;;;;;5.57;3.30;;;;;;;12.41;60.67;100311.38;4974699;28;20439;-72
2021/04/11 07:58:35;;;;;;;5.33;2.83;;;;;;;12.56;59.01;100315.19;4983686;28;20782;-71
2021/04/11 08:01:15;;;;;;;4.27;2.43;;;;;;;12.66;60.58;100315.66;4970287;28;20232;-70
2021/04/11 08:04:10;;;;;;;4.10;2.40;;;;;;;12.84;57.94;100311.44;4973370;28;20216;-70
2021/04/11 08:07:01;;;;;;;3.60;2.47;;;;;;;13.00;58.25;100320.38;4977050;28;20208;-70
2021/04/11 08:09:40;;;;;;;5.03;2.10;;;;;;;13.15;56.90;100320.66;4973230;28;20280;-72
2021/04/11 08:12:31;;;;;;;3.80;2.27;;;;;;;13.15;56.37;100328.50;4980253;28;20230;-71
2021/04/11 08:15:10;;;;;;;3.87;2.30;;;;;;;13.28;55.68;100316.63;4978085;28;20199;-70
2021/04/11 08:18:00;;;;;;;4.40;1.90;;;;;;;13.30;56.10;100306.06;4978450;28;20256;-71
2021/04/11 08:20:56;;;;;;;4.20;2.17;;;;;;;13.43;55.30;100309.91;4981692;28;20225;-70
2021/04/11 08:24:01;;;;;;;4.07;2.10;;;;;;;13.53;55.74;100299.91;4976398;28;20232;-71
2021/04/11 08:26:47;;;;;;;2.10;1.77;;;;;;;13.67;53.64;100297.50;4976468;28;21051;-71
2021/04/11 08:29:32;;;;;;;2.37;1.83;;;;;;;13.80;53.17;100300.44;4973176;28;20585;-71
2021/04/11 08:32:40;;;;;;;3.40;1.90;;;;;;;13.94;53.09;100305.91;4973776;28;20236;-70
2021/04/11 08:35:15;;;;;;;3.40;1.93;;;;;;;13.96;52.55;100300.59;4951100;28;20302;-70
2021/04/11 08:38:22;;;;;;;2.90;1.90;;;;;;;14.04;52.87;100308.13;4957410;28;20224;-71
2021/04/11 08:41:00;;;;;;;2.83;1.90;;;;;;;14.17;52.14;100306.63;4947144;28;20237;-71
2021/04/11 08:43:36;;;;;;;4.00;1.90;;;;;;;14.24;52.12;100299.34;4960557;28;20272;-71
2021/04/11 08:46:13;;;;;;;3.87;1.80;;;;;;;14.29;51.57;100299.97;4961130;28;20201;-71
2021/04/11 08:48:46;;;;;;;3.73;1.97;;;;;;;14.33;52.69;100289.25;4979930;28;20213;-70
2021/04/11 08:51:19;;;;;;;3.73;2.00;;;;;;;14.34;51.62;100290.13;4968852;28;20210;-71
2021/04/11 08:53:56;;;;;;;3.17;1.83;;;;;;;14.38;51.80;100286.41;4959053;28;20229;-71
2021/04/11 08:56:29;;;;;;;3.87;1.90;;;;;;;14.61;51.18;100293.22;4964773;28;20606;-70
2021/04/11 08:59:01;;;;;;;2.87;1.70;;;;;;;14.73;52.09;100286.53;4961321;28;20684;-71
2021/04/11 09:02:09;;;;;;;3.00;1.70;;;;;;;14.77;49.93;100295.94;4961564;28;20213;-72
2021/04/11 09:04:39;;;;;;;3.77;1.80;;;;;;;14.77;50.28;100291.56;4937982;28;20274;-70
2021/04/11 09:07:17;;;;;;;2.57;1.70;;;;;;;14.93;49.58;100285.53;4961095;28;20183;-71
2021/04/11 09:09:54;;;;;;;5.27;2.10;;;;;;;15.04;50.35;100282.38;4961987;28;20207;-73
2021/04/11 09:12:30;;;;;;;1.97;1.60;;;;;;;15.08;49.64;100281.31;4958603;28;20487;-70
2021/04/11 09:15:10;;;;;;;2.43;1.77;;;;;;;15.21;49.76;100274.50;4964783;28;20197;-71
2021/04/11 09:17:55;;;;;;;3.37;2.10;;;;;;;15.35;48.50;100279.06;4965181;28;20573;-70
2021/04/11 09:20:27;;;;;;;3.13;2.13;;;;;;;15.46;48.28;100278.50;4953122;28;20241;-71
2021/04/11 09:23:05;;;;;;;2.57;1.60;;;;;;;15.62;49.74;100271.53;4959456;28;20227;-71
2021/04/11 09:25:34;;;;;;;4.40;1.80;;;;;;;15.72;49.03;100279.75;4942129;28;20226;-70
2021/04/11 09:28:33;;;;;;;3.70;2.07;;;;;;;15.74;47.96;100282.31;4981006;28;20220;-70
2021/04/11 09:31:17;;;;;;;3.17;1.90;;;;;;;15.70;47.78;100285.09;4960061;28;20190;-71
2021/04/11 09:34:15;;;;;;;2.20;1.90;;;;;;;15.86;48.21;100277.28;4962728;28;20608;-70
2021/04/11 09:36:50;;;;;;;2.40;1.70;;;;;;;15.97;48.91;100265.34;4962922;28;20197;-71
2021/04/11 09:39:47;;;;;;;4.60;1.87;;;;;;;16.05;47.75;100266.59;4959909;28;20287;-70
2021/04/11 09:42:40;;;;;;;3.53;1.97;;;;;;;16.20;48.07;100254.41;4963808;28;20714;-72
2021/04/11 09:45:18;;;;;;;3.40;1.97;;;;;;;16.24;46.32;100263.81;4958116;28;20203;-72
2021/04/11 09:48:27;;;;;;;4.93;2.20;;;;;;;16.27;47.27;100268.91;4955530;28;20598;-71
2021/04/11 09:51:04;;;;;;;3.13;2.00;;;;;;;16.19;46.96;100257.13;4967415;28;20609;-71
2021/04/11 09:53:48;;;;;;;3.47;1.83;;;;;;;16.32;47.05;100250.22;4962034;28;20253;-71
2021/04/11 09:56:28;;;;;;;6.40;2.40;;;;;;;16.40;47.14;100248.03;4965515;28;20217;-72
2021/04/11 09:59:13;;;;;;;3.73;2.00;;;;;;;16.54;46.73;100246.41;4960343;28;20202;-72
2021/04/11 10:01:48;;;;;;;3.53;1.83;;;;;;;16.70;45.86;100246.38;4949247;28;20233;-71
2021/04/11 10:04:28;;;;;;;4.77;3.00;;;;;;;16.66;46.52;100243.91;4957747;28;20223;-72
2021/04/11 10:07:16;;;;;;;3.60;2.00;;;;;;;16.68;45.28;100246.47;4962262;28;20201;-71
2021/04/11 10:09:52;;;;;;;2.83;1.53;;;;;;;16.69;46.20;100239.41;4966463;28;20296;-71
2021/04/11 10:12:48;;;;;;;4.07;2.23;;;;;;;16.88;45.82;100233.97;4957492;28;20747;-72
2021/04/11 10:15:21;;;;;;;3.40;1.90;;;;;;;16.86;45.91;100243.72;4949371;28;20253;-71
2021/04/11 10:18:23;;;;;;;2.87;1.87;;;;;;;16.99;44.75;100236.78;4954691;28;20898;-71
2021/04/11 10:20:59;;;;;;;2.93;2.07;;;;;;;17.16;46.14;100239.28;4959105;28;20668;-71
2021/04/11 10:23:40;;;;;;;3.07;2.40;;;;;;;17.09;45.95;100234.47;4956070;28;20657;-72
2021/04/11 10:26:14;;;;;;;5.73;2.33;;;;;;;17.11;44.08;100235.22;4967983;28;20196;-70
2021/04/11 10:28:46;;;;;;;6.53;2.80;;;;;;;17.25;45.62;100229.97;4968126;28;20203;-71
2021/04/11 10:31:25;;;;;;;5.70;2.03;;;;;;;17.40;45.58;100222.94;4960836;28;20198;-71
2021/04/11 10:34:01;;;;;;;2.63;1.87;;;;;;;17.47;44.67;100223.44;4975398;28;20230;-73
2021/04/11 10:36:41;;;;;;;3.13;1.90;;;;;;;17.46;43.81;100225.19;4963073;28;20205;-70
2021/04/11 10:39:19;;;;;;;5.27;2.20;;;;;;;17.59;43.88;100223.50;4953080;28;20699;-72
2021/04/11 10:41:54;;;;;;;5.53;2.23;;;;;;;17.67;43.80;100216.91;4961021;28;20217;-72
2021/04/11 10:44:37;;;;;;;3.27;2.00;;;;;;;17.68;44.58;100210.72;4961661;28;20217;-72
2021/04/11 10:47:21;;;;;;;2.13;1.90;;;;;;;17.85;42.96;100223.66;4959738;28;20244;-73
2021/04/11 10:49:59;;;;;;;4.40;1.93;;;;;;;17.88;42.59;100223.50;4961694;28;20213;-72
2021/04/11 10:52:55;;;;;;;2.20;1.80;;;;;;;17.96;43.33;100215.13;4965966;28;20570;-72
2021/04/11 10:55:51;;;;;;;2.53;1.83;;;;;;;18.06;42.26;100218.84;4962126;28;20194;-72
2021/04/11 10:58:46;;;;;;;2.93;2.00;;;;;;;18.17;42.36;100223.47;4958914;28;20206;-72
2021/04/11 11:01:24;;;;;;;3.17;2.03;;;;;;;18.26;40.86;100217.59;4965285;28;20246;-72
2021/04/11 11:04:28;;;;;;;3.57;1.90;;;;;;;18.31;42.04;100212.00;4964175;28;20653;-72
2021/04/11 11:07:18;;;;;;;4.67;1.87;;;;;;;18.40;41.58;100214.06;4960546;28;20201;-72
2021/04/11 11:09:50;;;;;;;3.70;1.77;;;;;;;18.49;43.15;100213.44;4956734;28;20301;-72
2021/04/11 11:12:39;;;;;;;2.40;1.93;;;;;;;18.58;42.46;100216.44;4960953;28;20565;-72
2021/04/11 11:15:38;;;;;;;3.00;1.90;;;;;;;18.58;42.59;100212.00;4953961;28;20619;-72
2021/04/11 11:18:27;;;;;;;2.87;1.90;;;;;;;18.56;42.43;100213.88;4961201;28;20229;-72
2021/04/11 11:21:07;;;;;;;3.17;1.80;;;;;;;18.66;41.51;100220.25;4959605;28;20218;-72
2021/04/11 11:24:05;;;;;;;3.30;2.30;;;;;;;18.74;40.89;100206.53;4957741;28;20649;-72
2021/04/11 11:27:16;;;;;;;3.97;2.17;;;;;;;18.71;42.60;100202.31;4922024;28;20276;-72
2021/04/11 11:30:13;;;;;;;2.87;1.87;;;;;;;18.72;42.68;100204.00;4960424;28;20203;-72
2021/04/11 11:32:49;;;;;;;2.33;1.77;;;;;;;18.83;40.90;100216.50;4961183;28;20318;-72
2021/04/11 11:35:17;;;;;;;5.47;1.97;;;;;;;18.96;41.72;100207.75;4955419;28;20436;-72
2021/04/11 11:38:10;;;;;;;3.27;1.93;;;;;;;18.89;41.57;100209.94;4959002;28;20225;-72
2021/04/11 11:40:48;;;;;;;3.43;2.10;;;;;;;19.01;39.34;100210.94;4962193;28;20216;-73
2021/04/11 11:43:24;;;;;;;3.63;2.30;;;;;;;19.02;40.68;100210.00;4966775;28;20210;-72
2021/04/11 11:46:08;;;;;;;3.50;2.13;;;;;;;18.97;41.37;100206.81;4960242;28;20650;-73
2021/04/11 11:48:45;;;;;;;3.90;2.20;;;;;;;19.01;40.62;100209.13;4958205;28;20601;-70
2021/04/11 11:51:16;;;;;;;2.50;1.93;;;;;;;19.02;40.60;100207.34;4964823;28;20198;-73
2021/04/11 11:53:47;;;;;;;3.80;1.60;;;;;;;19.08;42.46;100199.00;4956630;28;20226;-72
2021/04/11 11:56:20;;;;;;;4.30;1.97;;;;;;;19.23;41.23;100208.50;4963915;28;20198;-73
2021/04/11 11:58:55;;;;;;;3.33;2.03;;;;;;;19.27;40.54;100209.16;4960928;28;20202;-72
2021/04/11 12:01:37;;;;;;;3.30;2.00;;;;;;;19.23;41.40;100203.22;4951892;28;20300;-72
2021/04/11 12:04:19;;;;;;;2.30;1.87;;;;;;;19.20;41.31;100194.66;4959539;28;20312;-72
2021/04/11 12:06:50;;;;;;;5.13;2.13;;;;;;;19.09;41.77;100201.53;4955272;28;20218;-72
2021/04/11 12:09:23;;;;;;;2.73;2.00;;;;;;;19.09;40.29;100200.69;4969898;28;20229;-73